createdAt,value
2023-05-16T00:01:48.631Z,100339.75
2023-05-16T00:04:19.457Z,100337.75
2023-05-16T00:06:49.770Z,100341.34
2023-05-16T00:09:20.183Z,100338.91
2023-05-16T00:11:50.678Z,100349.81
2023-05-16T00:14:22.273Z,100347.38
2023-05-16T00:16:54.370Z,100355.88
2023-05-16T00:19:24.579Z,100348.97
2023-05-16T00:21:55.349Z,100355.81
2023-05-16T00:24:25.812Z,100353.41
2023-05-16T00:26:56.457Z,100351.78
2023-05-16T00:29:26.966Z,100356.63
2023-05-16T00:31:59.587Z,100351.75
2023-05-16T00:34:30.266Z,100347.31
2023-05-16T00:37:00.844Z,100342.06
2023-05-16T00:39:31.330Z,100342.06
2023-05-16T00:42:01.833Z,100333.53
2023-05-16T00:44:32.279Z,100333.13
2023-05-16T00:47:04.861Z,100331.09
2023-05-16T00:49:35.476Z,100331.88
2023-05-16T00:52:07.340Z,100319.78
2023-05-16T00:54:37.785Z,100324.59
2023-05-16T00:57:09.536Z,100323.38
2023-05-16T00:59:40.508Z,100326.59
2023-05-16T01:02:12.052Z,100321.31
2023-05-16T01:04:43.029Z,100311.22
2023-05-16T01:07:14.039Z,100320.91
2023-05-16T01:09:44.151Z,100312.03
2023-05-16T01:12:21.946Z,100316.88
2023-05-16T01:15:04.696Z,100316.84
2023-05-16T01:17:52.744Z,100322.47
2023-05-16T01:20:36.677Z,100314.00
2023-05-16T01:23:44.027Z,100313.13
2023-05-16T01:26:22.800Z,100313.50
2023-05-16T01:28:55.006Z,100311.88
2023-05-16T01:31:26.808Z,100307.44
2023-05-16T01:33:57.370Z,100311.88
2023-05-16T01:36:38.683Z,100307.88
2023-05-16T01:39:19.988Z,100307.88
2023-05-16T01:42:06.564Z,100311.50
2023-05-16T01:44:45.963Z,100310.28
2023-05-16T01:47:18.971Z,100310.28
2023-05-16T01:49:59.481Z,100320.38
2023-05-16T01:52:40.982Z,100316.75
2023-05-16T01:55:19.424Z,100317.97
2023-05-16T01:57:56.156Z,100325.59
2023-05-16T02:00:27.129Z,100319.97
2023-05-16T02:02:57.613Z,100315.94
2023-05-16T02:05:28.862Z,100310.28
2023-05-16T02:08:00.139Z,100312.75
2023-05-16T02:10:31.204Z,100310.72
2023-05-16T02:13:03.789Z,100316.34
2023-05-16T02:15:34.359Z,100316.34
2023-05-16T02:18:04.928Z,100315.94
2023-05-16T02:20:35.989Z,100311.13
2023-05-16T02:23:06.056Z,100313.13
2023-05-16T02:25:36.533Z,100317.97
2023-05-16T02:28:09.368Z,100313.50
2023-05-16T02:30:40.024Z,100316.75
2023-05-16T02:33:10.592Z,100321.56
2023-05-16T02:35:41.656Z,100323.97
2023-05-16T02:38:11.777Z,100328.03
2023-05-16T02:40:41.728Z,100325.59
2023-05-16T02:43:14.230Z,100322.75
2023-05-16T02:45:44.914Z,100324.78
2023-05-16T02:48:15.529Z,100333.25
2023-05-16T02:50:45.583Z,100327.97
2023-05-16T02:53:16.004Z,100347.38
2023-05-16T02:55:46.934Z,100340.91
2023-05-16T02:58:19.328Z,100341.72
2023-05-16T03:00:49.915Z,100339.28
2023-05-16T03:03:20.452Z,100345.75
2023-05-16T03:05:50.555Z,100348.94
2023-05-16T03:08:21.198Z,100355.81
2023-05-16T03:10:51.692Z,100357.81
2023-05-16T03:13:24.132Z,100368.31
2023-05-16T03:15:54.970Z,100366.69
2023-05-16T03:18:25.104Z,100369.88
2023-05-16T03:20:55.385Z,100365.47
2023-05-16T03:23:25.415Z,100366.66
2023-05-16T03:25:56.607Z,100372.31
2023-05-16T03:28:30.002Z,100366.25
2023-05-16T03:31:00.901Z,100375.91
2023-05-16T03:33:31.724Z,100380.72
2023-05-16T03:36:02.517Z,100372.66
2023-05-16T03:38:33.123Z,100370.66
2023-05-16T03:41:03.632Z,100379.94
2023-05-16T03:43:35.625Z,100375.47
2023-05-16T03:46:05.536Z,100377.50
2023-05-16T03:48:36.352Z,100366.59
2023-05-16T03:51:08.986Z,100362.53
2023-05-16T03:53:40.335Z,100359.72
2023-05-16T03:56:10.870Z,100374.22
2023-05-16T03:58:43.379Z,100371.00
2023-05-16T04:01:13.852Z,100365.75
2023-05-16T04:03:44.230Z,100365.75
2023-05-16T04:06:14.896Z,100370.59
2023-05-16T04:08:45.515Z,100371.84
2023-05-16T04:11:16.025Z,100371.00
2023-05-16T04:13:48.889Z,100366.59
2023-05-16T04:16:19.342Z,100363.41
2023-05-16T04:18:50.210Z,100353.72
2023-05-16T04:21:21.215Z,100360.16
2023-05-16T04:23:51.163Z,100356.94
2023-05-16T04:26:22.410Z,100360.19
2023-05-16T04:28:53.867Z,100355.78
2023-05-16T04:31:25.313Z,100365.50
2023-05-16T04:33:56.515Z,100359.44
2023-05-16T04:36:30.479Z,100371.16
2023-05-16T04:39:00.836Z,100368.75
2023-05-16T04:41:31.402Z,100370.78
2023-05-16T04:44:06.072Z,100379.69
2023-05-16T04:46:36.589Z,100376.84
2023-05-16T04:49:06.657Z,100382.94
2023-05-16T04:51:36.512Z,100385.75
2023-05-16T04:54:06.686Z,100387.00
2023-05-16T04:56:37.098Z,100377.34
2023-05-16T04:59:09.587Z,100371.28
2023-05-16T05:01:40.234Z,100378.56
2023-05-16T05:04:10.830Z,100383.41
2023-05-16T05:06:41.707Z,100370.94
2023-05-16T05:09:12.297Z,100364.88
2023-05-16T05:11:42.149Z,100365.72
2023-05-16T05:14:14.767Z,100370.19
2023-05-16T05:16:45.240Z,100354.06
2023-05-16T05:19:15.789Z,100357.72
2023-05-16T05:21:45.912Z,100363.00
2023-05-16T05:24:16.470Z,100353.72
2023-05-16T05:26:46.735Z,100350.13
2023-05-16T05:29:18.378Z,100348.53
2023-05-16T05:31:48.920Z,100345.34
2023-05-16T05:34:19.393Z,100348.63
2023-05-16T05:36:49.975Z,100339.75
2023-05-16T05:39:20.622Z,100336.16
2023-05-16T05:41:51.587Z,100335.78
2023-05-16T05:44:23.451Z,100327.31
2023-05-16T05:46:54.097Z,100333.41
2023-05-16T05:49:24.629Z,100335.03
2023-05-16T05:51:55.347Z,100329.81
2023-05-16T05:54:25.960Z,100338.72
2023-05-16T05:56:56.439Z,100324.56
2023-05-16T05:59:29.119Z,100335.13
2023-05-16T06:01:59.963Z,100327.88
2023-05-16T06:04:30.573Z,100325.47
2023-05-16T06:07:00.416Z,100321.03
2023-05-16T06:09:30.958Z,100318.59
2023-05-16T06:12:01.473Z,100329.91
2023-05-16T06:14:33.646Z,100317.00
2023-05-16T06:17:04.189Z,100318.19
2023-05-16T06:19:34.693Z,100304.44
2023-05-16T06:22:05.199Z,100304.44
2023-05-16T06:24:35.788Z,100298.41
2023-05-16T06:27:06.468Z,100297.56
2023-05-16T06:29:38.582Z,100299.59
2023-05-16T06:32:12.451Z,100303.63
2023-05-16T06:34:43.835Z,100296.31
2023-05-16T06:37:14.312Z,100294.69
2023-05-16T06:39:44.316Z,100294.69
2023-05-16T06:42:15.313Z,100298.31
2023-05-16T06:44:47.568Z,100301.13
2023-05-16T06:47:18.570Z,100299.50
2023-05-16T06:49:48.583Z,100301.53
2023-05-16T06:52:18.549Z,100295.81
2023-05-16T06:54:49.092Z,100298.25
2023-05-16T06:57:19.794Z,100290.13
2023-05-16T06:59:52.389Z,100288.47
2023-05-16T07:02:22.989Z,100290.47
2023-05-16T07:04:53.575Z,100280.72
2023-05-16T07:07:24.121Z,100280.66
2023-05-16T07:09:54.061Z,100285.09
2023-05-16T07:12:24.686Z,100280.66
2023-05-16T07:14:57.170Z,100278.56
2023-05-16T07:17:27.152Z,100280.16
2023-05-16T07:19:57.042Z,100273.25
2023-05-16T07:22:27.721Z,100282.56
2023-05-16T07:25:01.504Z,100279.69
2023-05-16T07:27:32.540Z,100276.44
2023-05-16T07:30:05.124Z,100275.56
2023-05-16T07:32:35.662Z,100269.88
2023-05-16T07:35:05.999Z,100272.66
2023-05-16T07:37:37.564Z,100275.09
2023-05-16T07:40:10.179Z,100283.13
2023-05-16T07:42:40.709Z,100271.81
2023-05-16T07:45:13.831Z,100274.63
2023-05-16T07:47:44.422Z,100283.91
2023-05-16T07:50:15.378Z,100286.72
2023-05-16T07:52:45.542Z,100289.53
2023-05-16T07:55:16.462Z,100279.75
2023-05-16T07:57:47.106Z,100282.56
2023-05-16T08:00:22.864Z,100285.75
2023-05-16T08:02:54.292Z,100276.38
2023-05-16T08:05:25.093Z,100278.38
2023-05-16T08:07:55.313Z,100275.09
2023-05-16T08:10:26.240Z,100272.63
2023-05-16T08:12:59.096Z,100275.47
2023-05-16T08:15:31.427Z,100270.53
2023-05-16T08:18:03.079Z,100266.84
2023-05-16T08:20:32.863Z,100270.13
2023-05-16T08:23:03.374Z,100264.41
2023-05-16T08:25:33.874Z,100263.56
2023-05-16T08:28:04.093Z,100257.84
2023-05-16T08:30:37.426Z,100262.66
2023-05-16T08:33:09.748Z,100258.97
2023-05-16T08:35:40.358Z,100260.97
2023-05-16T08:38:10.221Z,100264.22
2023-05-16T08:40:40.581Z,100258.47
2023-05-16T08:43:11.622Z,100262.50
2023-05-16T08:45:44.648Z,100255.97
2023-05-16T08:48:15.265Z,100252.69
2023-05-16T08:50:46.901Z,100252.66
2023-05-16T08:53:29.806Z,100244.50
2023-05-16T08:56:01.914Z,100250.59
2023-05-16T08:58:32.674Z,100247.31
2023-05-16T09:01:09.487Z,100247.25
2023-05-16T09:03:41.430Z,100236.28
2023-05-16T09:06:12.140Z,100237.06
2023-05-16T09:08:42.629Z,100236.22
2023-05-16T09:11:13.516Z,100234.59
2023-05-16T09:13:44.112Z,100227.25
2023-05-16T09:16:18.070Z,100221.94
2023-05-16T09:18:55.668Z,100222.31
2023-05-16T09:21:33.731Z,100214.97
2023-05-16T09:24:07.809Z,100220.25
2023-05-16T09:26:39.801Z,100220.63
2023-05-16T09:29:14.044Z,100215.69
2023-05-16T09:31:46.697Z,100219.69
2023-05-16T09:34:17.247Z,100212.38
2023-05-16T09:36:47.621Z,100211.94
2023-05-16T09:39:19.229Z,100211.06
2023-05-16T09:41:54.281Z,100210.63
2023-05-16T09:44:24.775Z,100209.41
2023-05-16T09:46:59.185Z,100210.59
2023-05-16T09:49:30.243Z,100209.34
2023-05-16T09:52:04.068Z,100216.66
2023-05-16T09:54:35.344Z,100202.44
2023-05-16T09:57:06.506Z,100201.19
2023-05-16T09:59:40.224Z,100196.31
2023-05-16T10:02:13.550Z,100195.06
2023-05-16T10:04:43.820Z,100195.88
2023-05-16T10:07:15.170Z,100192.59
2023-05-16T10:09:49.139Z,100184.06
2023-05-16T10:12:20.337Z,100180.00
2023-05-16T10:14:50.986Z,100174.69
2023-05-16T10:17:23.794Z,100169.78
2023-05-16T10:19:56.430Z,100167.75
2023-05-16T10:22:28.896Z,100175.06
2023-05-16T10:25:16.647Z,100168.53
2023-05-16T10:27:48.422Z,100170.59
2023-05-16T10:30:20.767Z,100170.59
2023-05-16T10:32:55.947Z,100161.75
2023-05-16T10:35:28.414Z,100159.38
2023-05-16T10:38:00.095Z,100160.28
2023-05-16T10:40:32.607Z,100151.81
2023-05-16T10:43:05.051Z,100152.69
2023-05-16T10:45:35.932Z,100159.59
2023-05-16T10:48:10.380Z,100163.69
2023-05-16T10:50:44.044Z,100164.91
2023-05-16T10:53:20.985Z,100164.47
2023-05-16T10:56:11.210Z,100160.41
2023-05-16T10:58:50.742Z,100159.16
2023-05-16T11:01:24.778Z,100159.53
2023-05-16T11:04:13.014Z,100158.31
2023-05-16T11:06:57.175Z,100157.44
2023-05-16T11:09:29.521Z,100151.75
2023-05-16T11:12:06.980Z,100148.50
2023-05-16T11:14:45.660Z,100146.03
2023-05-16T11:17:17.882Z,100141.13
2023-05-16T11:20:00.057Z,100141.13
2023-05-16T11:22:32.391Z,100134.66
2023-05-16T11:25:04.803Z,100121.66
2023-05-16T11:27:38.185Z,100114.72
2023-05-16T11:30:18.141Z,100117.56
2023-05-16T11:32:51.253Z,100109.84
2023-05-16T11:35:23.672Z,100105.31
2023-05-16T11:37:54.841Z,100102.47
2023-05-16T11:40:24.824Z,100092.69
2023-05-16T11:42:55.784Z,100097.97
2023-05-16T11:45:26.775Z,100095.91
2023-05-16T11:47:58.077Z,100096.72
2023-05-16T11:50:31.244Z,100092.63
2023-05-16T11:53:04.901Z,100089.00
2023-05-16T11:58:09.422Z,100082.88
2023-05-16T12:00:39.811Z,100084.91
2023-05-16T12:03:10.476Z,100077.56
2023-05-16T12:06:03.618Z,100069.81
2023-05-16T12:08:34.730Z,100066.16
2023-05-16T12:11:05.796Z,100068.22
2023-05-16T12:13:36.795Z,100068.56
2023-05-16T12:16:08.032Z,100071.41
2023-05-16T12:18:41.924Z,100067.34
2023-05-16T12:21:16.750Z,100064.09
2023-05-16T12:23:47.367Z,100064.88
2023-05-16T12:26:18.422Z,100060.34
2023-05-16T12:28:49.123Z,100054.28
2023-05-16T12:31:31.543Z,100051.81
2023-05-16T12:34:03.846Z,100062.03
2023-05-16T12:36:38.357Z,100058.38
2023-05-16T12:39:10.605Z,100060.41
2023-05-16T12:41:44.350Z,100064.09
2023-05-16T12:44:17.708Z,100061.22
2023-05-16T12:46:50.246Z,100059.97
2023-05-16T12:49:23.800Z,100059.56
2023-05-16T12:52:00.578Z,100058.31
2023-05-16T12:54:31.663Z,100056.25
2023-05-16T12:57:01.762Z,100060.72
2023-05-16T12:59:32.234Z,100063.94
2023-05-16T13:02:02.928Z,100067.59
2023-05-16T13:04:34.012Z,100063.50
2023-05-16T13:07:07.645Z,100065.97
2023-05-16T13:09:38.167Z,100071.66
2023-05-16T13:12:09.164Z,100075.28
2023-05-16T13:14:41.793Z,100086.69
2023-05-16T13:17:14.208Z,100093.97
2023-05-16T13:19:46.325Z,100094.78
2023-05-16T13:22:20.214Z,100092.75
2023-05-16T13:24:50.918Z,100086.22
2023-05-16T13:27:21.514Z,100089.09
2023-05-16T13:29:52.100Z,100090.31
2023-05-16T13:32:21.919Z,100091.59
2023-05-16T13:34:52.562Z,100097.28
2023-05-16T13:37:26.238Z,100089.53
2023-05-16T13:39:57.054Z,100089.13
2023-05-16T13:42:27.190Z,100075.75
2023-05-16T13:44:57.585Z,100091.16
2023-05-16T13:47:27.520Z,100087.50
2023-05-16T13:49:58.199Z,100083.03
2023-05-16T13:52:31.277Z,100078.63
2023-05-16T13:55:02.152Z,100070.50
2023-05-16T13:57:33.503Z,100069.69
2023-05-16T14:00:43.638Z,100059.56
2023-05-16T14:02:56.311Z,100057.94
2023-05-16T14:05:27.115Z,100051.44
2023-05-16T14:07:58.644Z,100065.66
2023-05-16T14:10:29.411Z,100064.09
2023-05-16T14:13:00.186Z,100065.31
2023-05-16T14:15:30.907Z,100055.97
2023-05-16T14:18:01.860Z,100053.09
2023-05-16T14:20:32.314Z,100043.78
2023-05-16T14:23:04.917Z,100042.16
2023-05-16T14:25:35.409Z,100024.28
2023-05-16T14:28:06.200Z,100027.13
2023-05-16T14:30:37.707Z,100028.38
2023-05-16T14:33:08.723Z,100018.25
2023-05-16T14:35:40.106Z,100023.94
2023-05-16T14:38:12.792Z,100023.94
2023-05-16T14:40:45.285Z,100012.97
2023-05-16T14:43:15.528Z,100018.66
2023-05-16T14:45:46.273Z,100018.66
2023-05-16T14:48:17.475Z,100014.19
2023-05-16T14:50:48.110Z,100016.25
2023-05-16T14:53:22.031Z,100014.66
2023-05-16T14:55:52.269Z,100011.81
2023-05-16T14:58:22.782Z,100008.94
2023-05-16T15:00:53.915Z,100004.09
2023-05-16T15:03:24.645Z,100005.31
2023-05-16T15:05:55.599Z,100010.19
2023-05-16T15:08:27.558Z,100007.34
2023-05-16T15:10:58.054Z,100012.25
2023-05-16T15:13:28.683Z,100011.44
2023-05-16T15:15:59.600Z,100002.88
2023-05-16T15:18:29.794Z,100004.13
2023-05-16T15:21:00.752Z,100012.66
2023-05-16T15:23:32.867Z,100013.88
2023-05-16T15:26:03.347Z,100009.47
2023-05-16T15:28:33.924Z,100011.50
2023-05-16T15:31:06.119Z,100007.84
2023-05-16T15:33:36.928Z,100010.69
2023-05-16T15:36:08.637Z,100014.78
2023-05-16T15:38:44.573Z,100017.25
2023-05-16T15:41:36.794Z,100024.16
2023-05-16T15:44:07.323Z,100019.72
2023-05-16T15:46:37.507Z,100020.94
2023-05-16T15:49:09.891Z,100023.00
2023-05-16T15:51:40.168Z,100021.38
2023-05-16T15:54:12.752Z,100016.94
2023-05-16T15:56:43.801Z,100019.00
2023-05-16T15:59:14.518Z,100017.78
2023-05-16T16:01:45.371Z,100014.16
2023-05-16T16:04:16.200Z,100012.16
2023-05-16T16:06:47.473Z,100015.00
2023-05-16T16:09:21.296Z,100013.03
2023-05-16T16:11:56.555Z,100022.81
2023-05-16T16:14:27.601Z,100031.75
2023-05-16T16:16:58.335Z,100030.16
2023-05-16T16:19:29.677Z,100041.19
2023-05-16T16:22:00.228Z,100030.22
2023-05-16T16:24:33.037Z,100035.53
2023-05-16T16:27:03.540Z,100034.69
2023-05-16T16:29:33.632Z,100021.72
2023-05-16T16:32:04.330Z,100030.69
2023-05-16T16:34:35.184Z,100022.56
2023-05-16T16:37:05.706Z,100025.06
2023-05-16T16:39:38.643Z,100027.09
2023-05-16T16:42:09.660Z,100023.06
2023-05-16T16:44:40.283Z,100029.19
2023-05-16T16:47:12.208Z,100025.97
2023-05-16T16:49:43.142Z,100023.53
2023-05-16T16:52:14.071Z,100029.66
2023-05-16T16:54:46.991Z,100039.44
2023-05-16T16:57:17.722Z,100030.53
2023-05-16T16:59:52.265Z,100028.13
2023-05-16T17:02:24.483Z,100032.19
2023-05-16T17:04:57.666Z,100037.09
2023-05-16T17:07:29.403Z,100027.72
2023-05-16T17:10:17.364Z,100029.78
2023-05-16T17:12:50.166Z,100038.72
2023-05-16T17:15:21.341Z,100035.88
2023-05-16T17:17:52.072Z,100038.72
2023-05-16T17:20:21.881Z,100033.03
2023-05-16T17:22:52.465Z,100035.88
2023-05-16T17:25:25.340Z,100031.81
2023-05-16T17:27:56.241Z,100036.69
2023-05-16T17:30:27.143Z,100034.66
2023-05-16T17:32:57.192Z,100034.66
2023-05-16T17:35:28.564Z,100041.94
2023-05-16T17:37:59.879Z,100036.69
2023-05-16T17:40:32.506Z,100036.69
2023-05-16T17:43:05.201Z,100042.38
2023-05-16T17:45:36.682Z,100040.78
2023-05-16T17:48:07.561Z,100039.16
2023-05-16T17:50:39.739Z,100038.38
2023-05-16T17:53:09.967Z,100043.25
2023-05-16T17:55:43.211Z,100050.16
2023-05-16T17:58:13.779Z,100046.53
2023-05-16T18:00:44.129Z,100047.75
2023-05-16T18:03:16.504Z,100055.03
2023-05-16T18:05:50.387Z,100058.28
2023-05-16T18:08:24.553Z,100060.34
2023-05-16T18:11:02.474Z,100052.66
2023-05-16T18:13:34.200Z,100057.56
2023-05-16T18:16:06.894Z,100052.31
2023-05-16T18:18:41.180Z,100053.09
2023-05-16T18:21:13.197Z,100050.69
2023-05-16T18:23:46.490Z,100052.34
2023-05-16T18:26:21.334Z,100051.56
2023-05-16T18:28:59.213Z,100069.03
2023-05-16T18:31:38.753Z,100073.91
2023-05-16T18:34:10.588Z,100074.75
2023-05-16T18:36:55.658Z,100071.91
2023-05-16T18:39:42.984Z,100068.72
2023-05-16T18:42:28.025Z,100076.41
2023-05-16T18:45:06.441Z,100075.63
2023-05-16T18:47:45.859Z,100075.22
2023-05-16T18:50:25.426Z,100080.53
2023-05-16T18:53:05.135Z,100079.75
2023-05-16T18:55:46.627Z,100088.63
2023-05-16T18:58:32.951Z,100082.16
2023-05-16T19:01:16.764Z,100087.03
2023-05-16T19:03:56.538Z,100078.94
2023-05-16T19:06:35.591Z,100094.38
2023-05-16T19:09:12.281Z,100086.28
2023-05-16T19:11:52.332Z,100094.00
2023-05-16T19:14:30.652Z,100098.09
2023-05-16T19:17:07.743Z,100095.66
2023-05-16T19:19:39.831Z,100086.75
2023-05-16T19:22:11.809Z,100087.56
2023-05-16T19:24:41.707Z,100092.44
2023-05-16T19:27:14.375Z,100085.94
2023-05-16T19:29:51.238Z,100093.66
2023-05-16T19:32:22.021Z,100097.75
2023-05-16T19:34:55.285Z,100096.94
2023-05-16T19:37:27.896Z,100106.28
2023-05-16T19:39:59.729Z,100099.78
2023-05-16T19:42:34.669Z,100098.97
2023-05-16T19:45:09.026Z,100092.47
2023-05-16T19:47:40.930Z,100090.88
2023-05-16T19:50:13.347Z,100086.41
2023-05-16T19:52:43.946Z,100088.47
2023-05-16T19:55:14.421Z,100079.16
2023-05-16T19:57:44.800Z,100079.94
2023-05-16T20:00:19.556Z,100081.16
2023-05-16T20:02:50.696Z,100087.28
2023-05-16T20:05:23.506Z,100077.94
2023-05-16T20:07:54.835Z,100079.97
2023-05-16T20:10:25.434Z,100084.06
2023-05-16T20:12:56.266Z,100084.06
2023-05-16T20:15:29.696Z,100081.22
2023-05-16T20:18:00.162Z,100078.81
2023-05-16T20:20:30.339Z,100078.81
2023-05-16T20:23:01.767Z,100084.88
2023-05-16T20:25:32.458Z,100085.31
2023-05-16T20:28:03.235Z,100079.25
2023-05-16T20:30:35.809Z,100085.75
2023-05-16T20:33:06.493Z,100077.66
2023-05-16T20:35:42.360Z,100080.47
2023-05-16T20:38:17.901Z,100087.38
2023-05-16T20:40:52.020Z,100089.44
2023-05-16T20:43:26.631Z,100091.06
2023-05-16T20:46:02.418Z,100093.06
2023-05-16T20:48:35.208Z,100101.63
2023-05-16T20:51:09.030Z,100104.09
2023-05-16T20:53:43.631Z,100097.66
2023-05-16T20:56:18.186Z,100116.34
2023-05-16T20:58:53.423Z,100113.97
2023-05-16T21:01:29.608Z,100106.72
2023-05-16T21:04:03.967Z,100103.06
2023-05-16T21:06:39.825Z,100109.19
2023-05-16T21:09:11.274Z,100102.31
2023-05-16T21:11:43.213Z,100104.38
2023-05-16T21:14:14.663Z,100102.38
2023-05-16T21:16:50.332Z,100106.06
2023-05-16T21:19:21.722Z,100107.72
2023-05-16T21:21:52.441Z,100103.66
2023-05-16T21:24:24.081Z,100105.75
2023-05-16T21:26:54.619Z,100104.53
2023-05-16T21:29:25.361Z,100106.63
2023-05-16T21:31:57.474Z,100102.59
2023-05-16T21:34:28.091Z,100104.66
2023-05-16T21:36:59.190Z,100106.31
2023-05-16T21:39:29.305Z,100104.31
2023-05-16T21:42:01.210Z,100104.34
2023-05-16T21:44:39.771Z,100098.69
2023-05-16T21:47:12.478Z,100104.41
2023-05-16T21:49:42.516Z,100101.94
2023-05-16T21:52:13.175Z,100100.31
2023-05-16T21:54:43.727Z,100108.47
2023-05-16T21:57:14.254Z,100094.69
2023-05-16T21:59:44.281Z,100098.38
2023-05-16T22:02:16.888Z,100104.06
2023-05-16T22:04:48.077Z,100101.69
2023-05-16T22:07:18.249Z,100095.22
2023-05-16T22:09:51.234Z,100084.72
2023-05-16T22:12:21.460Z,100087.97
2023-05-16T22:14:52.131Z,100087.97
2023-05-16T22:17:23.790Z,100078.66
2023-05-16T22:19:54.798Z,100084.75
2023-05-16T22:22:25.572Z,100073.03
2023-05-16T22:24:56.224Z,100070.59
2023-05-16T22:27:26.263Z,100063.31
2023-05-16T22:29:56.741Z,100066.56
2023-05-16T22:32:29.098Z,100060.91
2023-05-16T22:34:59.218Z,100065.34
2023-05-16T22:37:29.706Z,100058.47
2023-05-16T22:39:59.717Z,100055.19
2023-05-16T22:42:30.784Z,100048.72
2023-05-16T22:45:01.312Z,100053.19
2023-05-16T22:47:33.163Z,100044.66
2023-05-16T22:50:03.695Z,100047.91
2023-05-16T22:52:33.667Z,100042.66
2023-05-16T22:55:04.836Z,100039.03
2023-05-16T22:57:35.456Z,100045.09
2023-05-16T23:00:06.507Z,100049.97
2023-05-16T23:02:38.621Z,100046.31
2023-05-16T23:05:11.238Z,100046.34
2023-05-16T23:07:41.795Z,100044.75
2023-05-16T23:10:13.015Z,100039.94
2023-05-16T23:12:43.146Z,100041.94
2023-05-16T23:15:14.507Z,100036.69
2023-05-16T23:17:46.602Z,100035.50
2023-05-16T23:20:17.426Z,100042.41
2023-05-16T23:22:48.092Z,100047.25
2023-05-16T23:25:18.280Z,100055.78
2023-05-16T23:27:48.998Z,100048.88
2023-05-16T23:30:19.840Z,100054.59
2023-05-16T23:32:52.172Z,100055.41
2023-05-16T23:35:22.882Z,100049.78
2023-05-16T23:37:53.122Z,100049.38
2023-05-16T23:40:23.819Z,100049.78
2023-05-16T23:42:54.253Z,100039.72
2023-05-16T23:45:24.921Z,100042.16
2023-05-16T23:47:57.546Z,100034.88
2023-05-16T23:50:27.770Z,100038.13
2023-05-16T23:52:57.841Z,100036.91
2023-05-16T23:55:28.648Z,100037.31
2023-05-16T23:57:58.968Z,100026.81
